Time;durP1;ratioP1;P1;durP2;ratioP2;P2;SDS_P1;SDS_P2;PMS_P1;PMS_P2;Temp;Humidity;BMP_temperature;BMP_pressure;BME280_temperature;BME280_humidity;BME280_pressure;Samples;Min_cycle;Max_cycle;Signal;HPM_P1;HPM_P2
2022/03/27 00:02:15;;;;;;;18.17;10.10;;;10.60;55.10;;;;;;20994818;28;20214;-63
2022/03/27 00:12:17;;;;;;;27.30;11.03;;;10.40;55.30;;;;;;20994833;28;20235;-64
2022/03/27 00:22:18;;;;;;;24.57;10.97;;;10.30;55.50;;;;;;20994599;28;20243;-63
2022/03/27 00:32:20;;;;;;;20.50;9.97;;;10.10;55.60;;;;;;20993448;28;20239;-63
2022/03/27 00:42:22;;;;;;;16.13;9.20;;;10.00;55.90;;;;;;20997539;28;20208;-64
2022/03/27 00:52:24;;;;;;;22.00;10.33;;;10.00;56.20;;;;;;21008559;28;20232;-64
2022/03/27 01:02:26;;;;;;;17.57;9.20;;;9.80;57.40;;;;;;21007731;28;20207;-64
2022/03/27 01:12:35;;;;;;;23.80;10.83;;;9.70;57.60;;;;;;21006562;28;20243;-63
2022/03/27 01:22:37;;;;;;;18.77;9.17;;;9.70;58.00;;;;;;21006168;28;20261;-64
2022/03/27 01:32:39;;;;;;;17.00;9.80;;;9.60;58.20;;;;;;21005249;28;20235;-63
2022/03/27 01:42:40;;;;;;;16.50;9.47;;;9.60;58.30;;;;;;21004012;28;20571;-63
2022/03/27 01:52:42;;;;;;;24.30;12.03;;;9.40;58.60;;;;;;21000785;28;20303;-62
2022/03/27 02:02:44;;;;;;;20.67;9.80;;;9.40;58.80;;;;;;21003070;28;20655;-63
2022/03/27 02:12:46;;;;;;;17.83;10.10;;;9.20;59.40;;;;;;21002033;28;20316;-63
2022/03/27 02:22:47;;;;;;;16.20;9.30;;;9.10;59.60;;;;;;21001535;28;20238;-62
2022/03/27 02:32:49;;;;;;;29.07;10.50;;;8.90;59.80;;;;;;21000891;28;20703;-63
2022/03/27 02:42:51;;;;;;;20.80;9.93;;;8.90;60.40;;;;;;20999833;28;20216;-63
2022/03/27 02:52:53;;;;;;;20.90;9.03;;;8.70;60.00;;;;;;20999271;28;20642;-63
2022/03/27 03:02:56;;;;;;;13.67;9.20;;;8.70;60.70;;;;;;20997542;28;20208;-62
2022/03/27 03:12:58;;;;;;;17.07;9.87;;;8.70;60.90;;;;;;20997227;28;20316;-63
2022/03/27 03:23:00;;;;;;;24.43;9.87;;;8.60;61.40;;;;;;20996669;28;20702;-62
2022/03/27 03:33:01;;;;;;;19.93;9.80;;;8.60;61.60;;;;;;20996012;28;20290;-64
2022/03/27 03:43:03;;;;;;;15.20;9.43;;;8.60;62.50;;;;;;20994798;28;20231;-62
2022/03/27 03:53:05;;;;;;;18.03;9.53;;;8.50;61.90;;;;;;20992834;28;20235;-62
2022/03/27 04:03:07;;;;;;;12.90;8.97;;;8.50;62.00;;;;;;20976777;28;20217;-63
2022/03/27 04:13:11;;;;;;;15.27;9.30;;;8.50;62.10;;;;;;20994140;28;20705;-63
2022/03/27 04:23:14;;;;;;;16.47;9.00;;;8.40;62.40;;;;;;21008664;28;20704;-63
2022/03/27 04:33:16;;;;;;;15.23;9.30;;;8.40;62.60;;;;;;21010461;28;20233;-63
2022/03/27 04:43:17;;;;;;;18.07;9.27;;;8.40;62.80;;;;;;21010972;28;20259;-63
2022/03/27 04:53:20;;;;;;;17.80;9.67;;;8.20;62.90;;;;;;21009743;28;20243;-63
2022/03/27 05:03:21;;;;;;;13.00;8.53;;;8.10;63.30;;;;;;21008103;28;20208;-64
2022/03/27 05:13:23;;;;;;;20.40;9.23;;;8.00;63.80;;;;;;21007521;28;20240;-63
2022/03/27 05:23:25;;;;;;;16.63;9.10;;;7.90;64.00;;;;;;21006530;28;20262;-63
2022/03/27 05:33:26;;;;;;;15.63;8.97;;;7.90;64.30;;;;;;21005956;28;20576;-62
2022/03/27 05:43:28;;;;;;;18.47;10.03;;;8.00;64.50;;;;;;21004220;28;20251;-64
2022/03/27 05:53:31;;;;;;;20.23;10.90;;;7.90;64.50;;;;;;21002070;28;20240;-62
2022/03/27 06:03:33;;;;;;;16.70;9.80;;;8.00;64.40;;;;;;21078085;28;20512;-62
2022/03/27 06:13:35;;;;;;;18.67;8.83;;;8.00;64.90;;;;;;21085762;28;20228;-63
2022/03/27 06:23:36;;;;;;;18.43;9.37;;;8.10;65.10;;;;;;21085524;28;20232;-61
2022/03/27 06:33:38;;;;;;;19.27;9.73;;;8.30;65.40;;;;;;21084668;28;20227;-63
2022/03/27 06:43:40;;;;;;;18.77;10.33;;;8.50;67.50;;;;;;21084098;28;20668;-66
2022/03/27 06:53:43;;;;;;;13.50;9.57;;;8.70;68.00;;;;;;21084775;28;20229;-62
2022/03/27 07:03:45;;;;;;;15.73;10.17;;;8.90;68.30;;;;;;21082048;28;20243;-62
2022/03/27 07:13:48;;;;;;;15.90;10.60;;;9.00;68.90;;;;;;21081193;28;20317;-64
2022/03/27 07:23:49;;;;;;;21.87;11.27;;;9.30;68.70;;;;;;21080496;28;20238;-63
2022/03/27 07:33:52;;;;;;;16.03;10.73;;;9.80;68.10;;;;;;21079631;28;20275;-63
2022/03/27 07:43:54;;;;;;;15.70;10.43;;;9.90;67.90;;;;;;21072371;28;20266;-64
2022/03/27 07:53:56;;;;;;;15.13;10.00;;;10.30;66.50;;;;;;20991608;28;20769;-60
2022/03/27 08:03:58;;;;;;;18.30;10.83;;;10.60;66.30;;;;;;20994192;28;20265;-63
2022/03/27 08:14:00;;;;;;;16.27;11.57;;;10.80;66.50;;;;;;20994074;28;20695;-63
2022/03/27 08:24:02;;;;;;;17.03;11.70;;;11.10;66.90;;;;;;20975966;28;20239;-63
2022/03/27 08:34:04;;;;;;;20.37;12.30;;;11.60;67.80;;;;;;20992916;28;20289;-62
2022/03/27 08:44:06;;;;;;;17.87;12.43;;;11.70;68.50;;;;;;20989690;28;20275;-63
2022/03/27 08:54:17;;;;;;;20.03;13.40;;;12.20;68.40;;;;;;20992746;28;20291;-67
2022/03/27 09:04:19;;;;;;;29.67;13.43;;;12.50;69.30;;;;;;20997895;28;20222;-64
2022/03/27 09:14:22;;;;;;;22.17;15.00;;;12.80;69.80;;;;;;21006681;28;20308;-64
2022/03/27 09:24:32;;;;;;;23.13;14.80;;;13.20;70.70;;;;;;21006203;28;20235;-63
2022/03/27 09:35:05;;;;;;;22.40;14.30;;;13.80;70.70;;;;;;21005371;28;20232;-64
2022/03/27 09:45:18;;;;;;;30.37;16.70;;;13.90;71.40;;;;;;21009540;28;20660;-64
2022/03/27 09:55:20;;;;;;;24.73;17.20;;;14.20;71.50;;;;;;21087359;28;20261;-61
2022/03/27 10:05:21;;;;;;;24.60;16.60;;;14.60;70.60;;;;;;21091572;28;20687;-63
2022/03/27 10:15:28;;;;;;;28.53;17.60;;;14.80;70.40;;;;;;21087853;27;20207;-61
2022/03/27 10:25:39;;;;;;;25.10;15.10;;;15.00;70.80;;;;;;21085049;28;20272;-61
2022/03/27 10:36:05;;;;;;;23.90;15.13;;;15.30;70.60;;;;;;21084509;28;20248;-62
2022/03/27 10:46:27;;;;;;;21.57;13.73;;;15.50;69.80;;;;;;21083416;28;20260;-63
2022/03/27 10:56:43;;;;;;;18.00;13.40;;;15.80;69.20;;;;;;21083084;28;20211;-62
2022/03/27 11:06:47;;;;;;;20.60;11.40;;;15.90;68.30;;;;;;21081806;28;20238;-62
2022/03/27 11:17:06;;;;;;;16.93;10.80;;;16.20;66.60;;;;;;21080590;28;20230;-62
2022/03/27 11:27:47;;;;;;;13.77;9.30;;;16.40;65.50;;;;;;21079534;28;20241;-64
2022/03/27 11:38:18;;;;;;;10.33;8.07;;;16.50;64.30;;;;;;21080931;28;20213;-62
2022/03/27 11:48:20;;;;;;;18.77;8.60;;;16.70;63.20;;;;;;21046735;28;20300;-62
2022/03/27 11:58:22;;;;;;;11.80;8.10;;;16.90;62.10;;;;;;20992251;28;20230;-62
2022/03/27 12:08:37;;;;;;;11.00;7.53;;;17.20;61.50;;;;;;20994442;28;20698;-63
2022/03/27 12:18:40;;;;;;;11.73;6.67;;;17.50;60.50;;;;;;20993064;28;20289;-65
2022/03/27 12:39:12;;;;;;;11.47;6.63;;;18.00;58.00;;;;;;20998267;28;20268;-62
2022/03/27 12:49:14;;;;;;;11.23;8.00;;;18.20;57.20;;;;;;21008679;28;20717;-63
2022/03/27 12:59:20;;;;;;;9.60;6.17;;;18.40;57.10;;;;;;21008337;28;20599;-63
2022/03/27 13:09:23;;;;;;;8.23;6.03;;;18.70;56.40;;;;;;21010711;28;20239;-63
2022/03/27 13:19:41;;;;;;;10.03;6.27;;;18.90;55.70;;;;;;21012655;28;20242;-64
2022/03/27 13:29:43;;;;;;;11.70;6.73;;;19.10;56.00;;;;;;21007362;28;20234;-62
2022/03/27 13:39:45;;;;;;;12.20;6.30;;;19.30;55.80;;;;;;21004668;28;20267;-62
2022/03/27 13:49:46;;;;;;;9.67;5.67;;;19.60;54.70;;;;;;21003055;28;20603;-64
2022/03/27 13:59:48;;;;;;;10.57;5.73;;;19.70;55.20;;;;;;20999776;28;20207;-64
2022/03/27 14:09:50;;;;;;;9.93;6.40;;;20.10;55.10;;;;;;21024594;28;20296;-63
2022/03/27 14:19:57;;;;;;;10.00;6.07;;;20.70;53.70;;;;;;21059110;28;20329;-63
2022/03/27 14:29:58;;;;;;;8.80;5.80;;;20.80;53.70;;;;;;21021987;28;20278;-68
2022/03/27 14:40:00;;;;;;;11.97;4.60;;;22.30;52.50;;;;;;21089648;28;20198;-63
2022/03/27 14:50:14;;;;;;;7.23;4.10;;;23.70;50.40;;;;;;21092917;28;20230;-61
2022/03/27 15:00:16;;;;;;;7.23;4.63;;;24.20;46.70;;;;;;21088383;28;20203;-71
2022/03/27 15:10:18;;;;;;;6.65;4.32;;;24.30;47.50;;;;;;21107742;28;20584;-67
2022/03/27 15:20:20;;;;;;;6.43;4.28;;;26.20;44.90;;;;;;21022288;28;20257;-72
2022/03/27 15:30:22;;;;;;;5.72;4.55;;;25.60;43.70;;;;;;20997052;28;20250;-69
2022/03/27 15:40:23;;;;;;;7.88;4.72;;;25.70;44.00;;;;;;20996506;28;20211;-64
2022/03/27 15:52:08;;;;;;;5.47;4.30;;;26.20;42.70;;;;;;21014368;27;20583;-64
2022/03/27 16:02:10;;;;;;;7.37;5.07;;;26.00;42.20;;;;;;20980948;28;20222;-65
2022/03/27 16:12:12;;;;;;;5.67;4.67;;;24.30;42.60;;;;;;20981943;28;20215;-64
2022/03/27 16:22:14;;;;;;;7.73;4.90;;;23.30;43.80;;;;;;20981143;28;20214;-69
2022/03/27 16:32:16;;;;;;;8.90;5.17;;;22.50;44.70;;;;;;20980466;28;20645;-70
2022/03/27 16:42:18;;;;;;;9.73;4.90;;;21.80;45.60;;;;;;20979177;28;20659;-66
2022/03/27 16:52:19;;;;;;;7.00;4.90;;;21.10;46.40;;;;;;20979061;28;20261;-67
2022/03/27 17:02:21;;;;;;;7.03;4.70;;;21.00;47.50;;;;;;20929476;28;20204;-67
2022/03/27 17:12:23;;;;;;;7.37;5.07;;;20.60;48.10;;;;;;20922480;28;20208;-65
2022/03/27 17:22:27;;;;;;;9.67;5.13;;;20.20;48.50;;;;;;20844430;28;20593;-68
2022/03/27 17:32:29;;;;;;;8.13;5.47;;;20.00;49.50;;;;;;20838648;28;20223;-63
2022/03/27 17:42:31;;;;;;;7.80;5.17;;;19.70;50.10;;;;;;20835856;28;20607;-61
2022/03/27 17:52:33;;;;;;;7.10;5.40;;;19.40;50.60;;;;;;20881774;28;20225;-63
2022/03/27 18:02:35;;;;;;;11.47;6.43;;;19.20;51.10;;;;;;20916610;28;20210;-66
2022/03/27 18:12:38;;;;;;;12.97;7.60;;;18.90;51.70;;;;;;20911133;28;20605;-63
2022/03/27 18:22:39;;;;;;;9.50;6.70;;;18.60;52.40;;;;;;20838059;28;20277;-60
2022/03/27 18:32:41;;;;;;;21.47;11.87;;;18.30;53.10;;;;;;20832463;28;20558;-64
2022/03/27 18:42:45;;;;;;;18.87;10.37;;;17.90;53.60;;;;;;20832110;28;20280;-61
2022/03/27 18:52:47;;;;;;;15.87;9.40;;;17.70;54.50;;;;;;20832245;28;20216;-60
2022/03/27 19:02:49;;;;;;;16.47;9.83;;;17.50;55.30;;;;;;20829124;28;20236;-62
2022/03/27 19:12:51;;;;;;;12.80;8.20;;;17.20;55.70;;;;;;20827892;28;20698;-64
2022/03/27 19:23:03;;;;;;;14.30;8.40;;;17.00;56.50;;;;;;20827710;28;20278;-63
2022/03/27 19:33:06;;;;;;;14.00;9.03;;;16.80;57.10;;;;;;20828807;28;20255;-65
2022/03/27 19:43:07;;;;;;;12.97;9.03;;;16.60;57.10;;;;;;20826894;28;20294;-66
2022/03/27 19:53:09;;;;;;;13.90;9.80;;;16.40;57.80;;;;;;20826831;28;20262;-65
2022/03/27 20:03:11;;;;;;;16.13;9.53;;;16.20;58.40;;;;;;20826737;28;20235;-62
2022/03/27 20:13:15;;;;;;;19.13;10.10;;;16.00;59.00;;;;;;20823711;28;20236;-64
2022/03/27 20:23:17;;;;;;;14.63;9.13;;;15.80;59.60;;;;;;20826077;28;20245;-66
2022/03/27 20:33:19;;;;;;;17.70;9.90;;;15.50;59.90;;;;;;20833814;28;20212;-65
2022/03/27 20:43:20;;;;;;;16.43;10.87;;;15.30;60.60;;;;;;20841067;28;20241;-66
2022/03/27 20:53:28;;;;;;;16.03;9.63;;;15.10;61.00;;;;;;20840087;28;20218;-66
2022/03/27 21:03:30;;;;;;;12.57;9.40;;;14.90;61.40;;;;;;20839345;28;20638;-63
2022/03/27 21:13:33;;;;;;;12.63;8.37;;;14.70;62.10;;;;;;20837866;28;20206;-64
2022/03/27 21:23:35;;;;;;;12.13;8.93;;;14.20;62.40;;;;;;20837135;28;20235;-67
2022/03/27 21:33:37;;;;;;;11.33;8.33;;;14.20;63.10;;;;;;20835617;28;20202;-64
2022/03/27 21:43:59;;;;;;;11.60;7.37;;;14.10;63.40;;;;;;20836097;28;20301;-62
2022/03/27 21:54:01;;;;;;;10.70;8.00;;;13.90;63.90;;;;;;20837250;28;20206;-61
2022/03/27 22:04:04;;;;;;;17.20;8.77;;;13.80;64.40;;;;;;20836739;28;20247;-61
2022/03/27 22:14:06;;;;;;;12.50;8.67;;;13.60;64.90;;;;;;20914158;28;20214;-61
2022/03/27 22:24:09;;;;;;;14.70;8.30;;;13.40;64.60;;;;;;20910564;28;20593;-61
2022/03/27 22:34:12;;;;;;;25.43;10.13;;;13.20;65.60;;;;;;20917318;28;20204;-59
2022/03/27 22:44:14;;;;;;;22.73;9.17;;;13.00;66.00;;;;;;20915368;28;20247;-62
2022/03/27 22:54:15;;;;;;;15.13;8.80;;;12.90;66.60;;;;;;20914382;28;20261;-64
2022/03/27 23:04:17;;;;;;;18.50;8.63;;;12.70;67.00;;;;;;20914585;28;20229;-62
2022/03/27 23:14:19;;;;;;;15.67;8.80;;;12.60;67.60;;;;;;20912243;28;20241;-62
2022/03/27 23:24:21;;;;;;;13.30;8.67;;;12.40;67.80;;;;;;20912729;28;20240;-61
2022/03/27 23:34:22;;;;;;;12.40;8.00;;;12.30;68.10;;;;;;20912670;28;20213;-61
2022/03/27 23:44:24;;;;;;;14.90;7.97;;;12.10;68.10;;;;;;20911522;28;20717;-62
2022/03/27 23:54:26;;;;;;;11.07;7.47;;;12.00;68.80;;;;;;20910237;28;20209;-61
